SIL weather

San Isidro Labrador Airport
Cajeme, Sonora, Mexico

Public forecast

Using degrees Celsius for public forecast. Weather courtesy of forecast.io.

Closest aviation weather report (METAR) to San Isidro Labrador Airport

Closest report is Ciudad Obregón International Airport, 4.2 nm (7.8 km) ENE. Retrieved 2020/07/03 15:48 UTC (54 minutes ago):

MMCN 031548Z 28007KT 10SM FEW100 33/18 A2987 RMK 8/030 ISOL CI HZY

Closest aviation forecast (TAF) to San Isidro Labrador Airport

Forecast is more than 6 hours old.

Closest forecast is Ciudad Obregón International Airport, 4.2 nm (7.8 km) ENE. Retrieved 2020/07/03 06:55 UTC (10 hours ago):

TAF MMCN 030453Z 0306/0406 16005KT P6SM SCT200 FM031800 14010KT P6SM SCT030 SCT200 TEMPO 0400/0404 6SM TSRA BKN020CB